Tiempo atmosférico en la estación meteorológica de San Vicente de la Barquera, Cantabria (39 m.)



Fecha
DESCASC
Temp. máxima en grados centígrados (hora)
DESCASC
Temp. mínima en grados centígrados (hora)
DESCASC
Temp. media en grados centígrados
DESCASC
Racha de viento máxima en m/sg (hora)
DESCASC
Velocidad máxima media en intervalos de 10 minutos(hora)
DESCASC
Precipitaciones diarias en mm
DESCASC
Precipitaciones de 00:00 a 06:00 en mm
DESCASC
Precipitaciones de 06:00 a 12:00 en mm
DESCASC
Precipitaciones de 12:00 a 18:00 en mm
DESCASC
Precipitaciones de 18:00 a 24:00 en mm
DESCASC
20-10-2019 14.3 (02:50) 10.3 (10:10) 12.3 13.06 (04:50) 8.06 (02:50) 47.8 17.7 13.6 16.1 0.4
19-10-2019 16 (11:30) 12.9 (23:59) 14.4 7.22 (12:40) 4.72 (12:30) 42 0.4 5.5 13.5 22.6
18-10-2019 20 (12:50) 15.1 (23:59) 17.6 7.5 (16:40) 3.33 (14:20) 0.3 0 0 0 0.3
17-10-2019 20 (11:40) 16.4 (00:00) 18.2 10.28 (14:00) 6.39 (14:00) 3.1 2.1 1 0 0
16-10-2019 25.3 (13:40) 16.9 (00:00) 21.1 7.22 (15:20) 3.89 (18:00) 2.2 0 1 0 1.2
15-10-2019 21.2 (12:50) 11.4 (00:00) 16.3 10.56 (00:10) 6.11 (00:10) 0 0 0 0 0
14-10-2019 19.6 (00:10) 13.2 (00:00) 16.4 16.67 (05:10) 11.11 (18:30) 8 0 3.1 2.2 2.7
13-10-2019 24.7 (12:00) 17.3 (00:00) 21 11.11 (14:20) 6.67 (14:50) 0 0 0 0 0
12-10-2019 20.5 (15:00) 15.9 (00:00) 18.2 5.56 (23:10) 2.78 (07:30) 0 0 0 0 0
11-10-2019 20.7 (15:10) 11.9 (00:00) 16.3 5.56 (16:10) 3.89 (07:30) 0 0 0 0 0
10-10-2019 20.3 (16:20) 11.4 (00:00) 15.8 6.11 (18:50) 4.44 (18:50) 0 0 0 0 0
09-10-2019 19.7 (13:40) 14.6 (00:00) 17.2 11.67 (12:00) 8.33 (15:00) 0.4 0.4 0 0 0
08-10-2019 27.2 (13:20) 14.9 (00:00) 21.1 13.33 (14:50) 9.72 (16:30) 3.9 0 0 0.1 3.8
07-10-2019 21.4 (18:30) 13.1 (00:00) 17.3 4.17 (23:20) 3.33 (23:20) 0 0 0 0 0
06-10-2019 20.2 (15:10) 15.4 (00:00) 17.8 8.61 (10:30) 5.28 (10:30) 0.5 0 0.4 0.1 0
05-10-2019 20.2 (13:40) 15.1 (00:00) 17.7 3.89 (20:30) 2.78 (08:50) 0 0 0 0 0
04-10-2019 19 (01:40) 16.8 (00:00) 17.9 8.06 (10:40) 5.56 (10:40) 4.4 0.6 2.6 1.2 0
03-10-2019 21.4 (17:30) 13.5 (00:00) 17.4 5.28 (12:50) 4.17 (12:50) 0 0 0 0 0
02-10-2019 20.4 (12:30) 16.4 (00:00) 18.4 16.94 (06:30) 11.39 (06:30) 0 0 0 0 0
01-10-2019 22.7 (12:30) 18.4 (00:00) 20.6 14.72 (21:20) 8.61 (21:00) 0 0 0 0 0
30-09-2019 24.3 (18:20) 15.4 (00:00) 19.8 6.39 (16:50) 5 (16:50) 0 0 0 0 0
29-09-2019 27.1 (13:50) 12.7 (00:00) 19.9 8.61 (19:50) 5.28 (20:00) 0.5 0 0 0 0.5
28-09-2019 21.4 (16:00) 14.9 (00:00) 18.1 5.28 (01:30) 3.33 (17:40) 1.2 1.1 0 0.1 0
27-09-2019 21.6 (14:30) 15.5 (00:00) 18.6 10.28 (17:40) 7.22 (16:50) 0 0 0 0 0
26-09-2019 22.2 (17:10) 16.8 (00:00) 19.5 5 (19:00) 3.33 (18:40) 0 0 0 0 0
25-09-2019 22.6 (14:10) 13.6 (00:00) 18.1 6.39 (13:20) 3.61 (15:20) 0 0 0 0 0
24-09-2019 21.1 (05:00) 17.6 (00:00) 19.4 12.5 (10:40) 7.22 (10:40) 1 0.5 0.4 0 0.1
23-09-2019 20.5 (15:00) 14.4 (00:00) 17.4 5 (22:40) 3.61 (04:00) 0.1 0 0 0 0.1
22-09-2019 22.3 (16:20) 16.3 (00:00) 19.3 13.06 (00:10) 7.5 (00:10) 0.7 0.2 0.1 0 0.4

Gráficas

Temp. máximas Temp. mínimas Temp. medias Precipitaciones Rachas de viento máximas Velocidades máximas media en intervalos de 10 minutos

Datos horarios

Fecha y hora oficial Temperatura (ºC) Velocidad del viento (km/h) Dirección del viento Racha (km/h) Dirección de racha Precipitación (mm) Presión (hPa) Tendencia (hPa) Humedad (%)
2019-10-21 23:00:00 11.1 11 Sudoeste 14 Sudoeste 0 1016 1.2 91
2019-10-21 22:00:00 11.4 10 Sudoeste 15 Sudoeste 0 1015.7 1.4 91
2019-10-21 21:00:00 11.8 10 Sur 14 Sudoeste 0 1015.4 1.3 90
2019-10-21 20:00:00 12.7 7 Sudoeste 13 Sudoeste 0 1014.8 0.8 88
2019-10-21 19:00:00 13.8 6 Sudoeste 11 Sudoeste 0 1014.3 0.4 85
2019-10-21 18:00:00 14.4 5 Sur 9 Sur 0 1014.1 0 85
2019-10-21 17:00:00 14.9 4 Noroeste 12 Nordeste 0 1014 -0.2 74
2019-10-21 16:00:00 15.3 5 Norte 15 Norte 0 1013.9 -0.4 72
2019-10-21 15:00:00 16.1 8 Noroeste 17 Norte 0 1014.1 -0.3 73
2019-10-21 14:00:00 16.4 7 Noroeste 18 Oeste 0 1014.2 -0.1 75
2019-10-21 13:00:00 16 9 Oeste 21 Oeste 0 1014.3 0.6 77
2019-10-21 12:00:00 14.5 15 Oeste 28 Noroeste 0 1014.4 1.6 83
2019-10-21 11:00:00 13.8 9 Oeste 18 Oeste 0 1014.3 2 82
2019-10-21 10:00:00 11.2 6 Sudoeste 15 Sudoeste 0 1013.7 1.4 88
2019-10-21 09:00:00 10.9 8 Sudoeste 14 Sudoeste 0 1012.8 0.9 88
2019-10-21 08:00:00 10.6 9 Sur 14 Sudoeste 0 1012.3 0.6 89
2019-10-21 07:00:00 10.9 6 Sudoeste 14 Sudoeste 0 1012.3 0.6 88
2019-10-21 06:00:00 11.7 5 Sudoeste 13 Sudoeste 0 1011.9 0.1 86
2019-10-21 05:00:00 11.2 4 Sudoeste 12 Sur 0 1011.7 0.5 88
2019-10-21 04:00:00 11 7 Sudoeste 14 Sudoeste 0 1011.7 0.5 88
2019-10-21 03:00:00 11.6 6 Sudoeste 15 Sudoeste 0 1011.8 0.7 88
2019-10-21 02:00:00 11.1 5 Sudoeste 16 Sudoeste 0 1011.2 0.2 88
2019-10-21 01:00:00 11.3 4 Sudoeste 16 Sudoeste 0 1011.2 1 89
2019-10-21 00:00:00 11.4 6 Sudoeste 15 Sudoeste 0 1011.1 1.6 90
2019-10-20 23:00:00 11.4 3 Sudoeste 17 Oeste 0 1011 2.1 90
2019-10-20 22:00:00 11.5 0 Calma 16 Sudoeste 0.1 1010.2 2.3 90
2019-10-20 21:00:00 11.4 0 Calma 21 Sudoeste 0 1009.5 2.1 91
2019-10-20 20:00:00 11.6 4 Sudoeste 19 Sudoeste 0 1008.9 1.8 91
2019-10-20 19:00:00 11.7 3 Sudoeste 19 Oeste 0.3 1007.9 1.9 91
2019-10-20 18:00:00 12.4 5 Sudoeste 27 Noroeste 10.3 1007.4 1.6 91
2019-10-20 17:00:00 12.6 5 Sudoeste 38 Oeste 3.3 1007.1 1.3 91
2019-10-20 16:00:00 13.1 24 Noroeste 42 Noroeste 1.5 1006 0.9 90
2019-10-20 15:00:00 12.5 5 Sudoeste 17 Sudoeste 0.3 1005.8 1 91
2019-10-20 14:00:00 12.3 3 Sudoeste 14 Sudoeste 0.7 1005.8 0.8 90
2019-10-20 13:00:00 12.4 3 Sudoeste 23 Sudoeste 0 1005.1 0.7 88
2019-10-20 12:00:00 11.6 5 Sudoeste 18 Sudoeste 0.1 1004.8 1.4 91
2019-10-20 11:00:00 10.6 6 Sudoeste 18 Sur 0.4 1005 2.3 91
2019-10-20 10:00:00 10.5 6 Sudoeste 17 Sudoeste 1.4 1004.4 2.3 91
2019-10-20 09:00:00 10.7 2 Sudoeste 15 Oeste 1.5 1003.4 2.2 91
2019-10-20 08:00:00 11 5 Sudoeste 29 Oeste 3.5 1002.7 2.4 91
2019-10-20 07:00:00 11.7 10 Oeste 31 Oeste 6.7 1002.1 2.3 91
2019-10-20 06:00:00 12.3 4 Sudoeste 46 Noroeste 4.3 1001.2 1.5 91
2019-10-20 05:00:00 12.9 21 Noroeste 47 Norte 1.3 1000.3 0.5 91
2019-10-20 04:00:00 14 15 Norte 40 Oeste 0.3 999.8 0 91
2019-10-20 03:00:00 14.2 27 Norte 40 Norte 1.1 999.7 0.3 92
2019-10-20 02:00:00 13.5 10 Norte 29 Norte 7.4 999.8 0 93
2019-10-20 01:00:00 12.9 6 Oeste 22 Oeste 3.3 999.8 0.2 92
2019-10-20 00:00:00 13 0 Calma 10 Sur 2.7 999.4 -0.4 93
2019-10-19 23:00:00 13.3 0 Calma 8 Sudoeste 2 999.8 0.1 92
2019-10-19 22:00:00 13.3 3 Sudoeste 11 Sur 3.2 999.6 0.2 92
2019-10-19 21:00:00 13.6 4 Sudoeste 10 Sur 3.2 999.8 0.8 92
2019-10-19 20:00:00 13.8 3 Sudoeste 12 Oeste 5.3 999.7 0.2 92
2019-10-19 19:00:00 14.3 0 Calma 15 Nordeste 6.2 999.4 -0.2 92
2019-10-19 18:00:00 14.5 0 Calma 5 Sudoeste 2.3 999 -1 92
2019-10-19 17:00:00 14.7 0 Calma 8 Oeste 1.9 999.5 -1.5 92
2019-10-19 16:00:00 14.7 4 Norte 15 Norte 3.9 999.6 -2.1 92
2019-10-19 15:00:00 15.1 10 Nordeste 15 Noroeste 1.4 1000 -1.7 92
2019-10-19 14:00:00 14.9 6 Noroeste 20 Oeste 3.2 1001 -0.9 92
2019-10-19 13:00:00 15.1 13 Noroeste 26 Norte 0.8 1001.7 -0.3 92
2019-10-19 12:00:00 15.7 8 Noroeste 18 Noroeste 2.2 1001.7 -0.2 92
2019-10-19 11:00:00 15.5 0 Calma 8 Sudoeste 0.5 1001.9 -0.4 92
2019-10-19 10:00:00 15.4 3 Sudoeste 8 Noroeste 0 1002 -0.4 92
2019-10-19 09:00:00 15 4 Sur 10 Sudoeste 2.7 1001.9 -0.4 92
2019-10-19 08:00:00 15.2 4 Sudoeste 19 Norte 0.1 1002.3 0 92
2019-10-19 07:00:00 14.7 4 Sudoeste 12 Sudoeste 0 1002.4 0 92
2019-10-19 06:00:00 14.6 7 Sudoeste 12 Oeste 0 1002.3 -1.3 91
2019-10-19 05:00:00 14.8 7 Sudoeste 12 Sudoeste 0 1002.3 -1.6 92
2019-10-19 04:00:00 14.2 8 Sur 13 Sudoeste 0.2 1002.4 -2.3 92
2019-10-19 03:00:00 14.4 8 Sudoeste 14 Sudoeste 0.1 1003.6 -1.3 92
2019-10-19 02:00:00 14.7 8 Sudoeste 13 Sur 0.1 1003.9 -1.6 91
2019-10-19 01:00:00 14.6 9 Sudoeste 15 Sur 0 1004.7 -0.7 92
2019-10-19 00:00:00 15.2 8 Sudoeste 11 Sudoeste 0.3 1004.9 -1.3 90
2019-10-18 23:00:00 16.1 5 Sur 12 Sur 0 1005.5 -1.1 84
2019-10-18 22:00:00 16.5 8 Sur 15 Sudeste 0 1005.4 -1.5 79
2019-10-18 21:00:00 16.6 6 Sur 11 Este 0 1006.2 -1.6 83
2019-10-18 20:00:00 16.9 5 Sudeste 17 Sudeste 0 1006.6 -2 82
2019-10-18 19:00:00 17.5 5 Sudeste 11 Sudeste 0 1006.9 -1.9 78
2019-10-18 18:00:00 18.1 2 Este 10 Norte 0 1007.8 -1.6 76
2019-10-18 17:00:00 18.6 4 Norte 27 Nordeste 0 1008.6 -1.6 73
2019-10-18 16:00:00 19 6 Norte 14 Norte 0 1008.8 -2 70
2019-10-18 15:00:00 18.8 10 Norte 16 Norte 0 1009.4 -1.8 71
2019-10-18 14:00:00 19 10 Nordeste 14 Nordeste 0 1010.2 -1.2 71
2019-10-18 13:00:00 19.3 6 Este 12 Este 0 1010.8 -0.4 69
2019-10-18 12:00:00 18.6 0 Calma 7 Sudoeste 0 1011.2 0.4 82
2019-10-18 11:00:00 17 4 Sudoeste 10 Sur 0 1011.4 0.7 88
2019-10-18 10:00:00 15.9 6 Sur 10 Sudoeste 0 1011.2 0.7 91
2019-10-18 09:00:00 16.1 5 Sudoeste 13 Sudoeste 0 1010.8 0.6 88
2019-10-18 08:00:00 16.3 6 Sur 11 Sudoeste 0 1010.7 0.8 88
2019-10-18 07:00:00 16.4 4 Sudoeste 24 Oeste 0 1010.5 0.6 86
2019-10-18 06:00:00 16.2 5 Sudoeste 14 Oeste 0 1010.2 0.1 90
2019-10-18 05:00:00 16.3 5 Sudoeste 12 Oeste 0 1009.9 -0.1 90
2019-10-18 04:00:00 16 8 Sur 11 Sur 0 1009.9 0 91
2019-10-18 03:00:00 16.2 6 Sur 11 Sur 0 1010.1 -0.1 91
2019-10-18 02:00:00 16.1 5 Sur 11 Sur 0 1010 -0.4 91
2019-10-18 01:00:00 16.4 7 Sur 10 Sur 0 1009.9 -0.3 91
2019-10-18 00:00:00 16.4 5 Sur 8 Sur 0 1010.2 0.3 91
2019-10-17 23:00:00 16.9 5 Sur 6 Sur 0 1010.4 0.6 90
2019-10-17 22:00:00 17 0 Calma 3 Sudoeste 0 1010.2 0.1 88
2019-10-17 21:00:00 17.2 0 Calma 8 Sur 0 1009.9 0.2 88
2019-10-17 20:00:00 17.4 3 Sudeste 5 Sudeste 0 1009.8 0 87
2019-10-17 19:00:00 17.9 0 Calma 6 Sudeste 0 1010.1 0.4 86
2019-10-17 18:00:00 18 0 Calma 9 Oeste 0 1009.7 0.3 86
2019-10-17 17:00:00 17.8 3 Noroeste 14 Oeste 0 1009.8 0.4 89
2019-10-17 16:00:00 17.4 10 Oeste 25 Noroeste 0 1009.7 0.4 90
2019-10-17 15:00:00 17.6 19 Noroeste 33 Noroeste 0 1009.4 0.6 91
2019-10-17 14:00:00 17.8 23 Noroeste 37 Noroeste 0 1009.4 0.4 90
2019-10-17 13:00:00 19.7 8 Noroeste 17 Norte 0 1009.3 0.2 90
2019-10-17 12:00:00 19.4 7 Norte 11 Este 0 1008.8 0.7 91
2019-10-17 11:00:00 18.2 0 Calma 5 Sur 0.1 1009 1.4 92
2019-10-17 10:00:00 16.9 4 Sur 8 Sur 0.9 1009.1 2.4 92
2019-10-17 09:00:00 16.9 6 Sur 10 Sudoeste 0 1008.1 1.8 92
2019-10-17 08:00:00 17.5 2 Oeste 20 Norte 0 1007.6 1.5 92
2019-10-17 07:00:00 18 6 Norte 20 Norte 0 1006.7 0 92
2019-10-17 06:00:00 17.8 11 Norte 16 Norte 0 1006.3 -1.3 92
2019-10-17 05:00:00 17.2 3 Nordeste 16 Sudeste 0.2 1006.1 -1.1 92
2019-10-17 04:00:00 16.9 8 Sur 13 Sudeste 1.2 1006.7 -0.2 92
2019-10-17 03:00:00 17.3 5 Sur 15 Oeste 0.7 1007.6 1.1 92
2019-10-17 02:00:00 18 10 Oeste 27 Oeste 0 1007.2 1.2 91
2019-10-17 01:00:00 18.1 7 Oeste 26 Oeste 0 1006.9 0.2 90
2019-10-17 00:00:00 18.5 13 Oeste 18 Oeste 0 1006.5 -0.4 85
2019-10-16 23:00:00 19.6 4 Sur 18 Sur 0 1006 -1.2 72
2019-10-16 22:00:00 18.5 2 Este 13 Sudeste 0.1 1006.7 -0.2 83
2019-10-16 21:00:00 18.2 4 Sur 13 Sudeste 0 1006.9 0.8 88
2019-10-16 20:00:00 18.4 7 Sur 20 Sudoeste 1.1 1007.2 1.4 85
2019-10-16 19:00:00 20.4 3 Sudoeste 19 Oeste 0 1006.9 0.8 71
2019-10-16 18:00:00 20.5 14 Oeste 22 Oeste 0 1006.1 0.2 79
2019-10-16 17:00:00 21.1 9 Noroeste 17 Noroeste 0 1005.8 -0.2 75
2019-10-16 16:00:00 23.3 3 Noroeste 26 Sur 0 1006.1 -0.1 55
2019-10-16 15:00:00 23.1 4 Sudoeste 23 Sudoeste 0 1005.9 -0.4 50
2019-10-16 14:00:00 24.5 6 Sur 23 Sur 0 1006 -1 47
2019-10-16 13:00:00 23.2 7 Sudoeste 26 Sudoeste 0 1006.2 -2 53
2019-10-16 12:00:00 20.3 7 Sur 21 Sudoeste 0 1006.3 -1.1 61
2019-10-16 11:00:00 17.9 10 Sudeste 26 Sudeste 0.2 1007 -0.2 76
2019-10-16 10:00:00 17.2 2 Sudoeste 17 Sur 0.7 1008.2 1.4 83
2019-10-16 09:00:00 18.1 0 Calma 15 Sudoeste 0.1 1007.4 0.6 73
2019-10-16 08:00:00 19.3 4 Sudoeste 24 Sudoeste 0 1007.2 0.1 60
2019-10-16 07:00:00 19.5 3 Sudoeste 14 Sudoeste 0 1006.8 -0.5 57
2019-10-16 06:00:00 19.3 0 Calma 20 Sur 0 1006.8 -1.3 56
2019-10-16 05:00:00 19.6 6 Sudoeste 24 Sudoeste 0 1007.1 -1.3 54
2019-10-16 04:00:00 19 6 Sudoeste 20 Sudoeste 0 1007.3 -1.4 57
2019-10-16 03:00:00 18.1 4 Sur 16 Sudoeste 0 1008.1 -1.6 57
2019-10-16 02:00:00 18.2 4 Sudoeste 19 Sur 0 1008.4 -2.4 55
2019-10-16 01:00:00 18.5 5 Sudoeste 24 Sudoeste 0 1008.7 -2.4 53
2019-10-16 00:00:00 18 9 Sur 21 Sudeste 0 1009.7 -1.4 62
2019-10-15 23:00:00 15.8 5 Sur 14 Sur 0 1010.8 -0.2 80
2019-10-15 22:00:00 16.2 9 Sudoeste 13 Sudoeste 0 1011.1 0.3 77
2019-10-15 21:00:00 17 2 Sudoeste 9 Sur 0 1011.1 0.3 66
2019-10-15 20:00:00 17.2 6 Sur 9 Sur 0 1011 0.1 75
2019-10-15 19:00:00 18.4 3 Sudeste 9 Este 0 1010.8 -0.7 63
2019-10-15 18:00:00 19.5 0 Calma 10 Norte 0 1010.8 -0.6 53
2019-10-15 17:00:00 19.4 7 Norte 12 Nordeste 0 1010.9 -1.1 54
2019-10-15 16:00:00 20 5 Nordeste 13 Este 0 1011.5 -0.9 55
2019-10-15 15:00:00 20.3 6 Nordeste 11 Este 0 1011.4 -1.3 54
2019-10-15 14:00:00 20.6 5 Este 8 Este 0 1012 -0.7 48
2019-10-15 13:00:00 20.6 3 Sudeste 9 Sur 0 1012.4 0.1 47
2019-10-15 12:00:00 19.2 5 Sur 10 Sudoeste 0 1012.7 1 60
2019-10-15 11:00:00 15.6 7 Sur 17 Sudoeste 0 1012.7 1.3 71
2019-10-15 10:00:00 11.7 10 Sudoeste 16 Sur 0 1012.3 1.2 81
2019-10-15 09:00:00 12 7 Sudoeste 15 Sur 0 1011.7 1 74
2019-10-15 08:00:00 13 10 Sudoeste 16 Sur 0 1011.4 1 66
2019-10-15 07:00:00 12.1 6 Sudoeste 18 Sudoeste 0 1011.1 0.8 73
2019-10-15 06:00:00 12.1 8 Sudoeste 17 Oeste 0 1010.7 0.4 73
2019-10-15 05:00:00 11.8 8 Sudoeste 15 Oeste 0 1010.4 0.3 77
2019-10-15 04:00:00 12.1 7 Sudoeste 12 Sudoeste 0 1010.3 0.3 72
2019-10-15 03:00:00 12.6 6 Sudoeste 14 Sur 0 1010.3 1.2 70
2019-10-15 02:00:00 14.4 11 Oeste 37 Oeste 0 1010.1 1.8 60
2019-10-15 01:00:00 13.7 7 Oeste 38 Oeste 0 1010 2.2 64
2019-10-15 00:00:00 14 26 Oeste 46 Oeste 0 1009.1 1.6 66
2019-10-14 23:00:00 14.1 21 Oeste 41 Oeste 0 1008.3 1.5 67
2019-10-14 22:00:00 13.9 21 Oeste 51 Oeste 0 1007.8 2.6 75
2019-10-14 21:00:00 14.5 11 Oeste 28 Oeste 0 1007.5 2.6 77
2019-10-14 20:00:00 13.9 9 Oeste 30 Oeste 0.1 1006.8 2.9 82
2019-10-14 19:00:00 13.7 13 Oeste 59 Noroeste 2.6 1005.2 2.6 92
2019-10-14 18:00:00 15.5 14 Oeste 32 Noroeste 1.6 1004.9 1.8 90
2019-10-14 17:00:00 17.3 12 Oeste 18 Oeste 0 1003.9 1.1 82
2019-10-14 16:00:00 17.6 8 Noroeste 14 Noroeste 0 1002.6 -0.3 81
2019-10-14 15:00:00 17.2 6 Norte 17 Norte 0 1003.1 -0.7 85
2019-10-14 14:00:00 17.7 5 Nordeste 12 Este 0 1002.8 0.3 82
2019-10-14 13:00:00 17.2 4 Sudeste 19 Este 0.6 1002.9 0.3 90
2019-10-14 12:00:00 14.8 4 Sudoeste 12 Sudoeste 0.8 1003.8 1.5 92
2019-10-14 11:00:00 14.8 3 Sudoeste 11 Sudoeste 2.3 1002.5 0.2 91
2019-10-14 10:00:00 15.6 5 Sur 10 Sur 0 1002.6 0.5 85
2019-10-14 09:00:00 15.7 5 Sur 9 Sur 0 1002.3 0.1 84
2019-10-14 08:00:00 15.6 2 Sudoeste 29 Oeste 0 1002.3 1.3 86
2019-10-14 07:00:00 16.1 19 Oeste 42 Oeste 0 1002.1 1.7 88
2019-10-14 06:00:00 16.2 26 Oeste 60 Oeste 0 1002.2 1.7 92
2019-10-14 05:00:00 16.9 36 Oeste 54 Oeste 0 1001 -0.6 92
2019-10-14 04:00:00 18.2 12 Oeste 25 Oeste 0 1000.4 -2.2 92
2019-10-14 03:00:00 18.4 4 Sur 13 Sur 0 1000.5 -3.5 92
2019-10-14 02:00:00 18.7 4 Sur 10 Sudeste 0 1001.6 -2.8 91
2019-10-14 01:00:00 18.8 3 Sur 21 Este 0 1002.6 -2.3 91
2019-10-14 00:00:00 19.4 9 Nordeste 18 Norte 0 1004 -1.1 92
2019-10-13 23:00:00 19.4 9 Nordeste 14 Nordeste 0 1004.4 -0.8 91
2019-10-13 22:00:00 19.4 6 Nordeste 12 Nordeste 0 1004.9 -0.4 91
2019-10-13 21:00:00 19.4 8 Nordeste 14 Este 0 1005.1 -1 91
2019-10-13 20:00:00 19.4 8 Nordeste 13 Este 0 1005.2 -1.5 90
2019-10-13 19:00:00 19.4 6 Nordeste 11 Nordeste 0 1005.3 -1.5 89
2019-10-13 18:00:00 19.4 5 Norte 11 Noroeste 0 1006.1 -0.9 88
2019-10-13 17:00:00 19.8 7 Noroeste 19 Noroeste 0 1006.7 0.6 86
2019-10-13 16:00:00 20.2 13 Noroeste 25 Oeste 0 1006.8 1.8 85
2019-10-13 15:00:00 20.5 18 Oeste 40 Oeste 0 1007 3 86
2019-10-13 14:00:00 21.9 22 Noroeste 32 Oeste 0 1006.1 2.6 79
2019-10-13 13:00:00 22.6 12 Noroeste 27 Oeste 0 1005 2.2 76
2019-10-13 12:00:00 24.7 4 Sudeste 24 Sur 0 1004 2.4 47
2019-10-13 11:00:00 19.9 0 Calma 18 Noroeste 0 1003.5 2.5 88
2019-10-13 10:00:00 19.1 8 Noroeste 23 Oeste 0 1002.8 2 91
2019-10-13 09:00:00 21 3 Oeste 17 Oeste 0 1001.6 1.2 60
2019-10-13 08:00:00 20.9 3 Sudeste 13 Nordeste 0 1001 0.7 69
2019-10-13 07:00:00 18 3 Sudeste 19 Sudoeste 0 1000.8 -0.8 92
2019-10-13 06:00:00 17.7 4 Oeste 21 Sur 0 1000.4 -1.2 92
2019-10-13 05:00:00 17.8 9 Sur 15 Sur 0 1000.3 -1.6 92
2019-10-13 04:00:00 18.4 5 Oeste 17 Noroeste 0 1001.6 -0.2 92
2019-10-13 03:00:00 18.8 12 Oeste 24 Oeste 0 1001.6 -1.2 92
2019-10-13 02:00:00 19.1 3 Norte 13 Norte 0 1001.9 -2.3 92
2019-10-13 01:00:00 18.8 3 Este 15 Este 0 1001.8 -2.6 92
2019-10-13 00:00:00 19.2 5 Sudeste 20 Este 0 1002.8 -2.2 92
2019-10-12 23:00:00 19.6 5 Este 16 Este 0 1004.2 -0.4 92
2019-10-12 22:00:00 19.4 2 Sudeste 8 Este 0 1004.4 0.3 92
2019-10-12 21:00:00 19.6 0 Calma 12 Noroeste 0 1005 0.9 92
2019-10-12 20:00:00 19.6 5 Noroeste 12 Norte 0 1004.6 0.2 91
2019-10-12 19:00:00 19.5 6 Norte 15 Este 0 1004.1 -0.7 91
2019-10-12 18:00:00 19.7 4 Nordeste 19 Nordeste 0 1004.1 -1.5 90
2019-10-12 17:00:00 19.9 6 Este 16 Este 0 1004.4 -2.4 88
2019-10-12 16:00:00 19.8 6 Norte 12 Norte 0 1004.8 -2.5 88
2019-10-12 15:00:00 20.3 0 Calma 6 Norte 0 1005.6 -1.5 88
2019-10-12 14:00:00 19.3 2 Noroeste 8 Oeste 0 1006.8 0.2 90
2019-10-12 13:00:00 19 0 Calma 11 Oeste 0 1007.3 0.6 91
2019-10-12 12:00:00 18.3 4 Oeste 10 Noroeste 0 1007.1 0.7 92
2019-10-12 11:00:00 17.3 2 Sur 11 Sur 0 1006.6 0.3 92
2019-10-12 10:00:00 16.9 6 Sudoeste 13 Sur 0 1006.7 -0.1 92
2019-10-12 09:00:00 16.7 6 Sur 11 Sur 0 1006.4 -0.6 92
2019-10-12 08:00:00 16.5 7 Sur 13 Sur 0 1006.3 -0.9 92
2019-10-12 07:00:00 16.6 8 Sudoeste 10 Sudoeste 0 1006.8 -1.2 92
2019-10-12 06:00:00 16.7 7 Sur 10 Sudoeste 0 1007 -1.5 92
2019-10-12 05:00:00 16.3 8 Sur 10 Sur 0 1007.2 -1.7 92
2019-10-12 04:00:00 16.1 8 Sudoeste 11 Sur 0 1008 -1.5 92
2019-10-12 03:00:00 16 8 Sudoeste 10 Sudoeste 0 1008.5 -1.9 92
2019-10-12 02:00:00 16.5 7 Sudoeste 10 Sudoeste 0 1008.9 -1.5 92
2019-10-12 01:00:00 17 6 Sudoeste 9 Sudoeste 0 1009.5 -0.7 92
2019-10-12 00:00:00 17.6 5 Sur 9 Sur 0 1010.4 0.7 92
2019-10-11 23:00:00 17.8 2 Sudoeste 8 Sudoeste 0 1010.4 1 91
2019-10-11 22:00:00 18.4 2 Sudoeste 15 Oeste 0 1010.2 0.7 91
2019-10-11 21:00:00 18.3 8 Oeste 13 Oeste 0 1009.7 0.1 91
2019-10-11 20:00:00 18.2 6 Oeste 11 Noroeste 0 1009.4 -0.5 91
2019-10-11 19:00:00 19 8 Noroeste 13 Noroeste 0 1009.5 -0.5 90
2019-10-11 18:00:00 19.9 8 Noroeste 14 Noroeste 0 1009.6 -1 86
2019-10-11 17:00:00 19.8 7 Noroeste 20 Noroeste 0 1009.9 -1.5 84
2019-10-11 16:00:00 20.2 13 Noroeste 17 Noroeste 0 1010 -1.8 86
2019-10-11 15:00:00 20.4 10 Noroeste 17 Noroeste 0 1010.6 -1.6 85
2019-10-11 14:00:00 19.9 13 Noroeste 17 Noroeste 0 1011.4 -1.1 86
2019-10-11 13:00:00 19.8 10 Noroeste 14 Noroeste 0 1011.8 -0.1 85
2019-10-11 12:00:00 19.3 9 Noroeste 15 Oeste 0 1012.2 0.7 82
2019-10-11 11:00:00 18 3 Oeste 13 Sudoeste 0 1012.5 1.3 83
2019-10-11 10:00:00 14.2 10 Sudoeste 16 Sudoeste 0 1011.9 0.5 89
2019-10-11 09:00:00 12.5 12 Sudoeste 18 Sudoeste 0 1011.5 -0.1 91
2019-10-11 08:00:00 12.8 14 Sudoeste 19 Sudoeste 0 1011.2 -0.5 92
2019-10-11 07:00:00 12.3 13 Sur 15 Sur 0 1011.4 -0.8 92
2019-10-11 06:00:00 12.4 7 Sudoeste 13 Sudoeste 0 1011.6 -1.4 92
2019-10-11 05:00:00 12.5 10 Sur 17 Sur 0 1011.7 -2 92
2019-10-11 04:00:00 12.7 8 Sudoeste 15 Sudoeste 0 1012.2 -2 92
2019-10-11 03:00:00 12.9 11 Sur 15 Sur 0 1013 -1.7 92
2019-10-11 02:00:00 13.1 10 Sur 13 Sur 0 1013.7 -1.1 92
2019-10-11 01:00:00 13.4 9 Sudoeste 13 Sudoeste 0 1014.2 -0.9 92
2019-10-11 00:00:00 14.1 7 Sudoeste 13 Sudoeste 0 1014.7 -0.7 92
2019-10-10 23:00:00 14.9 6 Sudoeste 9 Sudoeste 0 1014.8 -0.7 92
2019-10-10 22:00:00 15.7 6 Sur 12 Sudeste 0 1015.1 -0.6 91
2019-10-10 21:00:00 16.9 8 Sudeste 14 Sudeste 0 1015.4 -0.6 86
2019-10-10 20:00:00 18.1 10 Este 21 Este 0 1015.5 -1.1 85
2019-10-10 19:00:00 18.7 14 Este 22 Nordeste 0 1015.7 -1.5 82
2019-10-10 18:00:00 19.1 13 Este 18 Este 0 1016 -1.5 78
2019-10-10 17:00:00 20 8 Nordeste 14 Norte 0 1016.6 -1.5 73
2019-10-10 16:00:00 19.9 7 Nordeste 15 Norte 0 1017.2 -1.3 74
2019-10-10 15:00:00 19.3 9 Norte 15 Norte 0 1017.5 -1.5 75
2019-10-10 14:00:00 19.4 10 Nordeste 17 Norte 0 1018.1 -1 76
2019-10-10 13:00:00 19.1 10 Nordeste 16 Norte 0 1018.5 -0.5 75
2019-10-10 12:00:00 17.9 4 Nordeste 7 Norte 0 1019 0.4 79
2019-10-10 11:00:00 16.7 6 Sudoeste 14 Sur 0 1019.1 0.7 85
2019-10-10 10:00:00 13.8 11 Sur 16 Sur 0 1019 0.8 90
2019-10-10 09:00:00 11.8 10 Sudoeste 15 Sudoeste 0 1018.6 0.4 91
2019-10-10 08:00:00 11.5 10 Sudoeste 17 Sudoeste 0 1018.4 0.1 92
2019-10-10 07:00:00 11.7 10 Sudoeste 15 Sur 0 1018.2 0 92
2019-10-10 06:00:00 12 11 Sur 15 Sudoeste 0 1018.2 -0.3 92
2019-10-10 05:00:00 12.2 11 Sur 15 Sudoeste 0 1018.3 -0.3 92
2019-10-10 04:00:00 12.5 11 Sur 15 Sur 0 1018.2 -0.8 92
2019-10-10 03:00:00 13 12 Sur 16 Sudoeste 0 1018.5 -0.4 91
2019-10-10 02:00:00 13.9 8 Sudoeste 15 Sudoeste 0 1018.6 0 91
2019-10-10 01:00:00 13.9 9 Sudoeste 13 Sudoeste 0 1019 0.1 91
2019-10-10 00:00:00 14.6 6 Sudoeste 11 Sudoeste 0 1018.9 0.2 89
2019-10-09 23:00:00 14.9 5 Sudoeste 12 Sudoeste 0 1018.6 0.3 88
2019-10-09 22:00:00 15.6 6 Sudoeste 11 Oeste 0 1018.9 0.9 87
2019-10-09 21:00:00 16.5 5 Sudoeste 26 Noroeste 0 1018.7 0.8 82
2019-10-09 20:00:00 17.7 18 Noroeste 30 Noroeste 0 1018.3 0.3 77
2019-10-09 19:00:00 17.8 15 Noroeste 29 Noroeste 0 1018 0.3 79
2019-10-09 18:00:00 18.8 17 Oeste 36 Noroeste 0 1017.9 0.5 73
2019-10-09 17:00:00 18.2 30 Noroeste 40 Noroeste 0 1018 0.3 81
2019-10-09 16:00:00 19.2 18 Noroeste 37 Noroeste 0 1017.7 -0.2 65
2019-10-09 15:00:00 19.3 30 Noroeste 40 Noroeste 0 1017.4 -0.7 62
2019-10-09 14:00:00 19.5 24 Noroeste 35 Noroeste 0 1017.7 -0.2 66
2019-10-09 13:00:00 19.2 18 Noroeste 36 Noroeste 0 1017.9 0.2 67
2019-10-09 12:00:00 18.5 28 Noroeste 42 Noroeste 0 1018.1 1.4 68
2019-10-09 11:00:00 18 23 Noroeste 36 Noroeste 0 1017.9 1.3 69
2019-10-09 10:00:00 16 5 Sur 12 Sur 0 1017.7 1.4 86
2019-10-09 09:00:00 15.1 4 Sudoeste 19 Oeste 0 1016.7 0.7 80
2019-10-09 08:00:00 15.1 6 Oeste 22 Oeste 0 1016.6 0.7 82
2019-10-09 07:00:00 15.5 6 Oeste 16 Oeste 0 1016.3 0.4 88
2019-10-09 06:00:00 15.3 5 Sudoeste 16 Oeste 0 1016 0.1 92
2019-10-09 05:00:00 15.6 13 Oeste 36 Noroeste 0 1015.9 0.4 92
2019-10-09 04:00:00 15.2 3 Sudoeste 14 Sudoeste 0 1015.9 -0.3 92
2019-10-09 03:00:00 15 7 Sudoeste 12 Sudoeste 0 1015.9 -0.8 93
2019-10-09 02:00:00 14.9 6 Sudoeste 13 Sudoeste 0 1015.5 -1.2 93
2019-10-09 01:00:00 14.9 4 Sudoeste 30 Noroeste 0.4 1016.2 -0.4 93
2019-10-09 00:00:00 15.7 17 Noroeste 26 Noroeste 0.2 1016.7 0.4 93
2019-10-08 23:00:00 15.4 5 Sudoeste 22 Oeste 0.1 1016.7 0.6 93
2019-10-08 22:00:00 15.2 14 Oeste 36 Noroeste 1.1 1016.6 0.8 93
2019-10-08 21:00:00 16.1 5 Noroeste 23 Noroeste 0.7 1016.3 0.9 93
2019-10-08 20:00:00 16.4 6 Oeste 31 Oeste 0.7 1016.1 1.5 93
2019-10-08 19:00:00 16.8 18 Noroeste 33 Noroeste 1 1015.8 1.6 93
2019-10-08 18:00:00 16.9 23 Noroeste 48 Noroeste 0.1 1015.4 2.1 93
2019-10-08 17:00:00 18.3 32 Noroeste 48 Noroeste 0 1014.6 2.3 92
2019-10-08 16:00:00 19.6 29 Noroeste 44 Noroeste 0 1014.2 1.7 92
2019-10-08 15:00:00 21.8 28 Noroeste 48 Noroeste 0 1013.3 0.4 86
2019-10-08 14:00:00 25.1 2 Norte 7 Noroeste 0 1012.3 -1 71
2019-10-08 13:00:00 26.6 2 Sudeste 11 Sur 0 1012.5 -0.5 66
2019-10-08 12:00:00 24.2 6 Sur 11 Sur 0 1012.9 0.3 71
2019-10-08 11:00:00 22.1 6 Sur 18 Sur 0 1013.3 0.8 73
2019-10-08 10:00:00 19.8 0 Calma 21 Sudoeste 0 1013 0.3 81
2019-10-08 09:00:00 16.5 13 Sudoeste 21 Sudoeste 0 1012.6 0 86
2019-10-08 08:00:00 15.6 10 Sudoeste 19 Sudoeste 0 1012.5 -0.7 89
2019-10-08 07:00:00 15.8 10 Sudoeste 21 Sudoeste 0 1012.7 -1.5 88
2019-10-08 06:00:00 15.3 14 Sudoeste 20 Sudoeste 0 1012.6 -2.2 90
2019-10-08 05:00:00 14.9 14 Sudoeste 18 Sudoeste 0 1013.2 -1.9 91
2019-10-08 04:00:00 15.1 12 Sudoeste 15 Sudoeste 0 1014.2 -1 91
2019-10-08 03:00:00 15.3 12 Sur 15 Sudoeste 0 1014.8 -0.6 92
2019-10-08 02:00:00 15.4 10 Sudoeste 15 Sudoeste 0 1015.1 -0.6 92
2019-10-08 01:00:00 15.8 11 Sudoeste 15 Sudoeste 0 1015.2 0 92
2019-10-08 00:00:00 15.8 11 Sudoeste 15 Sur 0 1015.4 0.2 92
2019-10-07 23:00:00 16.2 10 Sudoeste 13 Sudoeste 0 1015.7 0.3 91
2019-10-07 22:00:00 16.9 10 Sudoeste 12 Sudoeste 0 1015.2 -0.5 91
2019-10-07 21:00:00 17.6 9 Sur 12 Sur 0 1015.2 -0.9 90
2019-10-07 20:00:00 19 3 Noroeste 6 Noroeste 0 1015.4 -0.9 83
2019-10-07 19:00:00 19.9 0 Calma 11 Norte 0 1015.7 -0.9 77
2019-10-07 18:00:00 20.5 4 Norte 12 Norte 0 1016.1 -0.3 76
2019-10-07 17:00:00 20.8 4 Norte 8 Norte 0 1016.3 -0.3 84
2019-10-07 16:00:00 20.3 5 Norte 11 Nordeste 0 1016.6 -0.3 84
2019-10-07 15:00:00 20 4 Norte 12 Norte 0 1016.4 -0.6 84
2019-10-07 14:00:00 19.8 5 Norte 11 Noroeste 0 1016.6 -0.4 83
2019-10-07 13:00:00 20.3 9 Noroeste 12 Noroeste 0 1016.9 0.2 79
2019-10-07 12:00:00 20.5 3 Noroeste 10 Sur 0 1017 0.6 71
2019-10-07 11:00:00 18.5 4 Sur 12 Sudoeste 0 1017 0.7 86
2019-10-07 10:00:00 15.1 9 Sudoeste 13 Sur 0 1016.7 0.8 92
2019-10-07 09:00:00 13.5 10 Sur 13 Sudoeste 0 1016.4 0.7 92
2019-10-07 08:00:00 13.3 11 Sudoeste 13 Sudoeste 0 1016.3 0.3 92
2019-10-07 07:00:00 13.4 11 Sur 12 Sur 0 1015.9 -0.9 92
2019-10-07 06:00:00 13.7 10 Sudoeste 12 Sudoeste 0 1015.7 -1.7 92
2019-10-07 05:00:00 14.3 9 Sudoeste 12 Sudoeste 0 1016 -1.8 92
2019-10-07 04:00:00 15 9 Sudoeste 12 Sudoeste 0 1016.8 -1.4 92
2019-10-07 03:00:00 15.8 6 Sur 9 Sudoeste 0 1017.4 -1.4 92
2019-10-07 02:00:00 16.2 7 Sur 9 Sudoeste 0 1017.8 -1.1 92
2019-10-07 01:00:00 16.1 7 Sur 10 Sur 0 1018.2 -0.8 92
2019-10-07 00:00:00 16.5 7 Sur 9 Sudoeste 0 1018.8 -0.3 92
2019-10-06 23:00:00 16.5 5 Sudoeste 10 Sur 0 1018.9 0.2 91
2019-10-06 22:00:00 17 5 Sur 10 Sur 0 1019 0.5 90
2019-10-06 21:00:00 17.7 5 Sudoeste 11 Norte 0 1019.1 1.3 88
2019-10-06 20:00:00 18.3 5 Noroeste 12 Norte 0 1018.7 0.8 84
2019-10-06 19:00:00 18.3 8 Norte 19 Norte 0 1018.5 0.5 83
2019-10-06 18:00:00 18.8 9 Norte 21 Norte 0 1017.8 -0.2 84
2019-10-06 17:00:00 18.9 9 Norte 26 Noroeste 0 1017.9 -0.6 85
2019-10-06 16:00:00 18.5 12 Noroeste 29 Noroeste 0.1 1018 -0.1 88
2019-10-06 15:00:00 19.8 13 Oeste 24 Oeste 0 1018 0.3 86
2019-10-06 14:00:00 19.4 12 Oeste 23 Oeste 0 1018.5 1 90
2019-10-06 13:00:00 18.5 13 Oeste 31 Oeste 0 1018.1 0.8 92
2019-10-06 12:00:00 18.4 12 Oeste 27 Oeste 0 1017.7 1.4 92
2019-10-06 11:00:00 17.7 17 Oeste 31 Oeste 0.2 1017.5 1.2 92
2019-10-06 10:00:00 17.5 18 Noroeste 29 Noroeste 0.2 1017.3 1.5 92
2019-10-06 09:00:00 16.6 9 Sur 13 Sur 0 1016.3 0.6 92
2019-10-06 08:00:00 16.9 2 Sudoeste 19 Noroeste 0 1016.3 1.1 91
2019-10-06 07:00:00 16.6 5 Sudoeste 14 Sudoeste 0 1015.8 0.2 92
2019-10-06 06:00:00 15.6 9 Sur 13 Sudoeste 0 1015.7 -0.1 92
2019-10-06 05:00:00 15.5 10 Sur 12 Sur 0 1015.2 -0.8 92
2019-10-06 04:00:00 15.6 8 Sudoeste 12 Sudoeste 0 1015.6 -0.1 92
2019-10-06 03:00:00 16.1 6 Sudoeste 12 Sudoeste 0 1015.8 0 92
2019-10-06 02:00:00 16.1 7 Sudoeste 12 Sudoeste 0 1016 -0.1 92
2019-10-06 01:00:00 16.7 6 Sudoeste 11 Sudoeste 0 1015.7 1.2 92
2019-10-06 00:00:00 16.3 6 Sudoeste 14 Sudoeste 0 1015.8 0.6 91
2019-10-05 23:00:00 16.9 6 Oeste 12 Sudeste 0 1016.1 0.7 91
2019-10-05 22:00:00 16.9 7 Sur 13 Sur 0 1014.5 -0.5 91
2019-10-05 21:00:00 17.5 6 Sur 14 Sur 0 1015.2 1 92
2019-10-05 20:00:00 18.1 6 Sur 12 Oeste 0 1015.4 1.4 90
2019-10-05 19:00:00 18.7 3 Oeste 9 Noroeste 0 1015 1.2 86
2019-10-05 18:00:00 19.6 2 Nordeste 9 Norte 0 1014.2 0 84
2019-10-05 17:00:00 19.8 4 Nordeste 10 Nordeste 0 1014 -0.6 83
2019-10-05 16:00:00 19.9 4 Nordeste 7 Nordeste 0 1013.8 -0.8 82
2019-10-05 15:00:00 19.9 5 Norte 12 Norte 0 1014.2 -0.4 82
2019-10-05 14:00:00 20 7 Norte 12 Nordeste 0 1014.6 0.2 82
2019-10-05 13:00:00 19.8 3 Norte 6 Este 0 1014.6 1 81
2019-10-05 12:00:00 19.2 2 Norte 6 Norte 0 1014.6 1.4 81
2019-10-05 11:00:00 19.5 0 Calma 10 Sudoeste 0 1014.4 1.6 87
2019-10-05 10:00:00 16.5 8 Sur 12 Sur 0 1013.6 0.8 92
2019-10-05 09:00:00 15.3 9 Sur 13 Sur 0 1013.2 0.2 92
2019-10-05 08:00:00 15.5 9 Sudoeste 11 Sur 0 1012.8 -0.6 92
2019-10-05 07:00:00 16.1 8 Sudoeste 10 Sudoeste 0 1012.8 -1 92
2019-10-05 06:00:00 16.5 8 Sudoeste 11 Sudoeste 0 1013 -1.3 91
2019-10-05 05:00:00 16.8 6 Sudoeste 12 Sudoeste 0 1013.4 -1 90
2019-10-05 04:00:00 16.7 8 Sudoeste 13 Sudoeste 0 1013.8 -0.8 91
2019-10-05 03:00:00 16.7 8 Sudoeste 12 Sudoeste 0 1014.3 -0.6 91
2019-10-05 02:00:00 16.7 7 Sudoeste 9 Sur 0 1014.4 -0.5 92
2019-10-05 01:00:00 16.8 8 Sur 10 Sur 0 1014.6 -0.4 91
2019-10-05 00:00:00 17.1 5 Sudoeste 9 Sur 0 1014.9 0.3 91
2019-10-04 23:00:00 17.2 4 Sudoeste 8 Sur 0 1014.9 0.1 92
2019-10-04 22:00:00 17.4 4 Sudoeste 8 Sur 0 1015 0.8 92
2019-10-04 21:00:00 17.3 4 Sudoeste 8 Sur 0 1014.6 0.4 92
2019-10-04 20:00:00 17.5 4 Sudoeste 7 Sur 0 1014.8 0.6 92
2019-10-04 19:00:00 17.6 2 Sudoeste 8 Sur 0 1014.2 -0.5 92
2019-10-04 18:00:00 17.2 2 Sudoeste 22 Oeste 0 1014.2 -0.6 92
2019-10-04 17:00:00 17.5 2 Oeste 18 Oeste 0.2 1014.2 -0.9 93
2019-10-04 16:00:00 17.3 8 Oeste 20 Oeste 0 1014.7 -0.6 93
2019-10-04 15:00:00 17.4 8 Noroeste 26 Oeste 0.7 1014.8 -0.9 93
2019-10-04 14:00:00 17.1 16 Noroeste 26 Noroeste 0.2 1015.1 -0.4 93
2019-10-04 13:00:00 17.3 12 Noroeste 24 Noroeste 0.1 1015.3 0.2 93
2019-10-04 12:00:00 17.8 4 Oeste 15 Oeste 0 1015.7 1.1 93
2019-10-04 11:00:00 17.2 13 Oeste 29 Noroeste 0.8 1015.5 1.3 93
2019-10-04 10:00:00 17.4 10 Oeste 27 Noroeste 1.3 1015.1 1.3 93
2019-10-04 09:00:00 17.2 0 Calma 17 Noroeste 0.3 1014.6 1 92
2019-10-04 08:00:00 17.4 5 Oeste 25 Noroeste 0.1 1014.2 0.6 92
2019-10-04 07:00:00 18.1 14 Oeste 28 Oeste 0.1 1013.8 0.5 92
2019-10-04 06:00:00 18.4 16 Oeste 29 Oeste 0.6 1013.6 0 92
2019-10-04 05:00:00 18.3 4 Sudoeste 14 Oeste 0 1013.6 0 87
2019-10-04 04:00:00 16.8 9 Sudoeste 14 Sudoeste 0 1013.3 -0.6 88
2019-10-04 03:00:00 17.4 9 Sudoeste 12 Sudoeste 0 1013.6 -0.5 86
2019-10-04 02:00:00 18.3 5 Sudoeste 18 Sudoeste 0 1013.6 -0.8 81
2019-10-04 01:00:00 17.7 10 Sudoeste 16 Sudoeste 0 1013.9 -0.2 86
2019-10-04 00:00:00 18 12 Sur 15 Sudoeste 0 1014.1 0 86
2019-10-03 23:00:00 18.3 10 Sudoeste 14 Sudoeste 0 1014.4 0.5 86
2019-10-03 22:00:00 18.4 12 Sur 16 Sur 0 1014.1 0 86
2019-10-03 21:00:00 19.2 9 Sudoeste 14 Sur 0 1014.1 -0.4 81
2019-10-03 20:00:00 19.8 8 Sur 11 Sur 0 1013.9 -0.7 73
2019-10-03 19:00:00 20.8 0 Calma 4 Norte 0 1014.1 -0.6 69
2019-10-03 18:00:00 20.5 2 Norte 9 Nordeste 0 1014.5 -0.2 72
2019-10-03 17:00:00 20.5 4 Noroeste 8 Norte 0 1014.6 -0.7 72
2019-10-03 16:00:00 20.2 4 Norte 10 Norte 0 1014.7 -0.7 71
2019-10-03 15:00:00 20 4 Norte 10 Nordeste 0 1014.7 -0.2 74
2019-10-03 14:00:00 20.3 4 Norte 19 Noroeste 0 1015.3 0.5 74
2019-10-03 13:00:00 19.9 14 Noroeste 19 Noroeste 0 1015.4 0.8 76
2019-10-03 12:00:00 20.3 6 Noroeste 14 Noroeste 0 1014.9 0.2 70
2019-10-03 11:00:00 19.3 5 Sur 15 Sudoeste 0 1014.8 0.2 80
2019-10-03 10:00:00 16 8 Sudoeste 15 Sudoeste 0 1014.6 0.1 91
2019-10-03 09:00:00 13.6 11 Sur 16 Sur 0 1014.7 0.4 92
2019-10-03 08:00:00 13.6 9 Sudoeste 14 Sudoeste 0 1014.6 0.3 92
2019-10-03 07:00:00 13.8 9 Sudoeste 13 Sudoeste 0 1014.5 -0.2 92
2019-10-03 06:00:00 14 11 Sudoeste 13 Sudoeste 0 1014.3 -1.5 92
2019-10-03 05:00:00 14.8 4 Sudoeste 11 Sur 0 1014.3 -1.9 92
2019-10-03 04:00:00 15.2 8 Sur 12 Sur 0 1014.7 -2.1 92
2019-10-03 03:00:00 16.1 8 Sur 10 Sur 0 1015.8 -1.8 92
2019-10-03 02:00:00 16.7 6 Sur 10 Sur 0 1016.2 -1.6 92
2019-10-03 01:00:00 16.9 4 Sur 9 Sur 0 1016.8 -1.4 92
2019-10-03 00:00:00 17.1 6 Sur 14 Sur 0 1017.6 -0.4 91
2019-10-02 23:00:00 17.3 5 Sur 10 Sur 0 1017.8 0.2 91
2019-10-02 22:00:00 17.6 6 Sur 8 Sur 0 1018.2 0.9 91
2019-10-02 21:00:00 18.2 3 Norte 13 Norte 0 1018 1 86
2019-10-02 20:00:00 18.1 9 Norte 19 Norte 0 1017.6 0.8 89
2019-10-02 19:00:00 18.2 15 Norte 23 Noroeste 0 1017.3 0.7 89
2019-10-02 18:00:00 18.9 14 Noroeste 26 Noroeste 0 1017 0.5 85
2019-10-02 17:00:00 19.1 19 Noroeste 33 Noroeste 0 1016.8 0 84
2019-10-02 16:00:00 18.7 22 Noroeste 48 Noroeste 0 1016.6 0.1 88
2019-10-02 15:00:00 18.8 27 Noroeste 45 Noroeste 0 1016.5 0.3 89
2019-10-02 14:00:00 19.3 25 Noroeste 38 Noroeste 0 1016.8 0.9 74
2019-10-02 13:00:00 19.8 21 Oeste 36 Oeste 0 1016.5 1.6 69
2019-10-02 12:00:00 19.5 13 Oeste 40 Oeste 0 1016.2 2.2 73
2019-10-02 11:00:00 18.5 20 Oeste 38 Oeste 0 1015.9 2.6 77
2019-10-02 10:00:00 18 18 Oeste 36 Oeste 0 1014.9 2 76
2019-10-02 09:00:00 17.4 24 Oeste 44 Oeste 0 1014 1.9 79
2019-10-02 08:00:00 16.4 14 Oeste 45 Oeste 0 1013.3 1.2 86
2019-10-02 07:00:00 17.3 32 Oeste 61 Noroeste 0 1012.9 0.6 88
2019-10-02 06:00:00 19 29 Noroeste 51 Noroeste 0 1012.1 -0.1 68
2019-10-02 05:00:00 19.1 25 Oeste 47 Noroeste 0 1012.1 -0.2 68
2019-10-02 04:00:00 19.3 22 Noroeste 41 Oeste 0 1012.3 -0.1 69
2019-10-02 03:00:00 19.3 20 Oeste 35 Noroeste 0 1012.2 -0.3 75
2019-10-02 02:00:00 18.5 10 Oeste 38 Oeste 0 1012.3 0.2 77
2019-10-02 01:00:00 18.9 30 Oeste 50 Oeste 0 1012.4 0.8 74
2019-10-02 00:00:00 19.3 29 Oeste 46 Oeste 0 1012.5 1.6 75
2019-10-01 23:00:00 19.2 25 Oeste 46 Oeste 0 1012.1 1.6 82
2019-10-01 22:00:00 19.5 29 Oeste 53 Oeste 0 1011.6 1.4 85
2019-10-01 21:00:00 19.6 31 Oeste 51 Noroeste 0 1010.9 0.7 83
2019-10-01 20:00:00 19.9 29 Noroeste 48 Noroeste 0 1010.5 0.7 85
2019-10-01 19:00:00 20 25 Noroeste 42 Oeste 0 1010.2 0.6 83
2019-10-01 18:00:00 20.5 24 Noroeste 41 Oeste 0 1010.2 0.8 82
2019-10-01 17:00:00 20.8 18 Noroeste 30 Oeste 0 1009.8 0.1 79
2019-10-01 16:00:00 20.9 18 Noroeste 33 Noroeste 0 1009.6 -0.1 82
2019-10-01 15:00:00 21 22 Noroeste 33 Noroeste 0 1009.4 -0.3 82
2019-10-01 14:00:00 21.5 19 Noroeste 31 Noroeste 0 1009.7 0.1 82
2019-10-01 13:00:00 21.6 3 Norte 13 Oeste 0 1009.7 0.8 85
2019-10-01 12:00:00 22.1 9 Noroeste 15 Noroeste 0 1009.7 1.4 84
2019-10-01 11:00:00 21.1 4 Sur 13 Noroeste 0 1009.6 1.6 89
2019-10-01 10:00:00 19.2 3 Sudoeste 11 Sudoeste 0 1008.9 1.1 92
2019-10-01 09:00:00 18.8 6 Sudoeste 9 Sudoeste 0 1008.3 0.6 92
2019-10-01 08:00:00 19.1 5 Sur 6 Sur 0 1008 0.5 92
2019-10-01 07:00:00 20.1 4 Oeste 22 Oeste 0 1007.8 0.5 92
2019-10-01 06:00:00 19.9 14 Oeste 31 Oeste 0 1007.7 0.3 92
2019-10-01 05:00:00 19.7 22 Oeste 37 Oeste 0 1007.5 -0.9 92
2019-10-01 04:00:00 19.3 7 Oeste 11 Oeste 0 1007.3 -1.5 91
2019-10-01 03:00:00 18.7 7 Sur 10 Sur 0 1007.4 -2.1 91
2019-10-01 02:00:00 19.2 5 Sur 10 Sur 0 1008.4 -1.1 91
2019-10-01 01:00:00 19.1 11 Sur 14 Sur 0 1008.8 -0.9 92
2019-10-01 00:00:00 19.4 10 Sur 14 Sur 0 1009.5 0 92
2019-09-30 23:00:00 19.7 9 Sudoeste 13 Sudoeste 0 1009.5 0.1 91
2019-09-30 22:00:00 20.4 8 Sudoeste 11 Sudoeste 0 1009.7 0.8 90
2019-09-30 21:00:00 20.8 9 Sur 10 Sur 0 1009.5 0.7 89
2019-09-30 20:00:00 21.7 2 Oeste 14 Oeste 0 1009.4 0.5 86
2019-09-30 19:00:00 22.3 9 Noroeste 14 Noroeste 0 1008.9 -0.6 85
2019-09-30 18:00:00 23.7 0 Calma 11 Nordeste 0 1008.8 -1.6 80
2019-09-30 17:00:00 23.3 14 Nordeste 23 Este 0 1008.9 -2.7 82
2019-09-30 16:00:00 23.4 11 Este 21 Este 0 1009.5 -2.8 77
2019-09-30 15:00:00 22.9 11 Este 18 Nordeste 0 1010.4 -2.3 84
2019-09-30 14:00:00 22.3 4 Nordeste 8 Nordeste 0 1011.6 -1 83
2019-09-30 13:00:00 21.1 6 Nordeste 11 Este 0 1012.3 -0.2 83
2019-09-30 12:00:00 20.8 4 Nordeste 7 Norte 0 1012.7 0.3 85
2019-09-30 11:00:00 21.3 5 Sur 12 Sur 0 1012.6 0.2 85
2019-09-30 10:00:00 18 10 Sur 17 Sudoeste 0 1012.5 0.2 89
2019-09-30 09:00:00 16.5 9 Sudoeste 15 Sudoeste 0 1012.4 -0.2 92
2019-09-30 08:00:00 16.3 9 Sudoeste 14 Sudoeste 0 1012.4 -0.3 92
2019-09-30 07:00:00 16.6 10 Sudoeste 13 Sudoeste 0 1012.3 -0.9 92
2019-09-30 06:00:00 17.8 8 Sur 11 Sudoeste 0 1012.6 -1.1 92
2019-09-30 05:00:00 17.9 7 Sudoeste 10 Sur 0 1012.7 -1.2 92
2019-09-30 04:00:00 18.8 4 Sur 7 Sur 0 1013.2 -1 92
2019-09-30 03:00:00 19.1 4 Sudoeste 6 Sudoeste 0 1013.7 -0.8 92
2019-09-30 02:00:00 19.2 2 Sudoeste 6 Sur 0 1013.9 -0.7 92
2019-09-30 01:00:00 19.3 3 Sur 8 Sur 0 1014.2 -0.1 92
2019-09-30 00:00:00 19.4 0 Calma 12 Oeste 0 1014.5 0.8 92
2019-09-29 23:00:00 19.2 7 Oeste 18 Oeste 0.4 1014.6 1.7 92
2019-09-29 22:00:00 19.8 9 Noroeste 22 Noroeste 0.1 1014.3 2.2 92
2019-09-29 21:00:00 20.8 6 Noroeste 20 Noroeste 0 1013.7 2.2 91
2019-09-29 20:00:00 20.9 19 Noroeste 31 Norte 0 1012.9 1.6 90
2019-09-29 19:00:00 23.6 0 Calma 6 Nordeste 0 1012.1 0.8 63
2019-09-29 18:00:00 22.7 0 Calma 9 Nordeste 0 1011.5 0.2 80
2019-09-29 17:00:00 23.3 0 Calma 8 Norte 0 1011.3 0.3 75
2019-09-29 16:00:00 23.1 4 Noroeste 18 Noroeste 0 1011.3 0.3 76
2019-09-29 15:00:00 24.6 7 Noroeste 14 Noroeste 0 1011.3 -0.1 66
2019-09-29 14:00:00 24.9 4 Este 10 Este 0 1011 0.2 53
2019-09-29 13:00:00 24.8 4 Sudeste 9 Sudeste 0 1011 1.3 59
2019-09-29 12:00:00 22.2 0 Calma 12 Noroeste 0 1011.4 2.4 70
2019-09-29 11:00:00 20.4 3 Sudoeste 17 Sur 0 1010.8 1.8 69
2019-09-29 10:00:00 16.2 13 Sur 19 Sudoeste 0 1009.7 0.6 82
2019-09-29 09:00:00 13.7 15 Sudoeste 21 Sudoeste 0 1009 -0.7 85
2019-09-29 08:00:00 12.7 16 Sudoeste 21 Sudoeste 0 1009 -1.3 89
2019-09-29 07:00:00 13.1 17 Sur 20 Sudoeste 0 1009.1 -1.5 89
2019-09-29 06:00:00 12.9 14 Sur 18 Sur 0 1009.7 -1.3 91
2019-09-29 05:00:00 13.1 13 Sudoeste 17 Sudoeste 0 1010.3 -0.8 91
2019-09-29 04:00:00 13.1 11 Sudoeste 15 Sudoeste 0 1010.6 -0.4 92
2019-09-29 03:00:00 13.3 10 Sudoeste 14 Sur 0 1011 -0.9 92
2019-09-29 02:00:00 13.9 7 Sudoeste 14 Sudoeste 0 1011.1 -0.8 92
2019-09-29 01:00:00 14.4 11 Sur 15 Sudoeste 0 1011 -1.2 92
2019-09-29 00:00:00 14.9 11 Sudoeste 13 Sudoeste 0 1011.9 -0.9 92
2019-09-28 23:00:00 15.9 10 Sudoeste 13 Sur 0 1011.9 -1.1 92
2019-09-28 22:00:00 17.1 8 Sur 15 Sudeste 0 1012.2 -1.2 92
2019-09-28 21:00:00 18.1 8 Sudeste 13 Este 0 1012.8 -1 90
2019-09-28 20:00:00 19 5 Este 15 Este 0 1013 -1 89
2019-09-28 19:00:00 19.5 11 Este 16 Este 0 1013.4 -1.4 85
2019-09-28 18:00:00 19.8 10 Este 18 Este 0 1013.8 -1.4 80
2019-09-28 17:00:00 20.3 10 Este 15 Este 0 1014 -2.3 78
2019-09-28 16:00:00 20.8 10 Nordeste 16 Este 0 1014.8 -2.3 76
2019-09-28 15:00:00 20.1 6 Nordeste 12 Norte 0 1015.2 -2.3 82
2019-09-28 14:00:00 20 9 Norte 12 Norte 0.1 1016.3 -0.8 82
2019-09-28 13:00:00 19.6 0 Calma 5 Norte 0 1017.1 0.2 79
2019-09-28 12:00:00 19.1 0 Calma 6 Norte 0 1017.5 0.7 81
2019-09-28 11:00:00 18.2 0 Calma 9 Sur 0 1017.1 0.3 92
2019-09-28 10:00:00 16.7 6 Sudoeste 9 Sur 0 1016.9 0.1 92
2019-09-28 09:00:00 16.1 7 Sudoeste 10 Sudoeste 0 1016.8 -0.3 92
2019-09-28 08:00:00 16.2 5 Sudoeste 10 Sudoeste 0 1016.8 -0.5 92
2019-09-28 07:00:00 16.2 8 Sur 10 Sur 0 1016.8 -0.8 92
2019-09-28 06:00:00 16.3 7 Sur 10 Sur 0 1017.1 -0.7 92
2019-09-28 05:00:00 16.3 7 Sur 13 Sur 0 1017.3 -0.4 92
2019-09-28 04:00:00 16.3 5 Sur 16 Sudoeste 0.8 1017.6 0.1 92
2019-09-28 03:00:00 16.6 9 Sur 14 Sur 0.3 1017.8 0.4 92
2019-09-28 02:00:00 17.7 9 Noroeste 19 Norte 0 1017.7 0.1 89
2019-09-28 01:00:00 18 2 Sur 11 Sudoeste 0 1017.5 0.1 82
2019-09-28 00:00:00 18.2 4 Sudoeste 16 Oeste 0 1017.4 0.5 82
2019-09-27 23:00:00 18.3 4 Sudoeste 10 Noroeste 0 1017.6 1.2 79
2019-09-27 22:00:00 18.4 3 Sudoeste 12 Oeste 0 1017.4 1.2 76
2019-09-27 21:00:00 18.4 3 Sudoeste 12 Sudoeste 0 1016.9 1.3 77
2019-09-27 20:00:00 18.2 4 Sudoeste 14 Oeste 0 1016.4 1 85
2019-09-27 19:00:00 18 9 Oeste 32 Oeste 0 1016.2 1.2 90
2019-09-27 18:00:00 17.8 21 Oeste 37 Oeste 0 1015.6 0.7 91
2019-09-27 17:00:00 19.2 24 Noroeste 35 Noroeste 0 1015.4 0.6 89
2019-09-27 16:00:00 20.2 22 Noroeste 28 Noroeste 0 1015 0 88
2019-09-27 15:00:00 20.4 7 Norte 19 Norte 0 1014.9 -0.3 85
2019-09-27 14:00:00 20.5 9 Norte 12 Norte 0 1014.8 -0.6 88
2019-09-27 13:00:00 20.3 8 Norte 11 Norte 0 1015 -0.1 90
2019-09-27 12:00:00 20 0 Calma 18 Oeste 0 1015.2 0.9 89
2019-09-27 11:00:00 19.4 11 Oeste 23 Oeste 0 1015.4 2.3 91
2019-09-27 10:00:00 19.2 11 Oeste 23 Oeste 0 1015.1 2.1 88
2019-09-27 09:00:00 19 11 Oeste 26 Oeste 0 1014.3 1.2 79
2019-09-27 08:00:00 15.6 12 Sur 17 Sur 0 1013.1 -0.2 91
2019-09-27 07:00:00 15.6 12 Sudoeste 16 Sur 0 1013 -0.7 92
2019-09-27 06:00:00 16 9 Sudoeste 15 Sudoeste 0 1013.1 -1.2 92
2019-09-27 05:00:00 15.8 12 Sur 15 Sur 0 1013.3 -1.1 92
2019-09-27 04:00:00 15.8 10 Sur 15 Sur 0 1013.7 -1.2 92
2019-09-27 03:00:00 16.4 8 Sudoeste 14 Sudoeste 0 1014.3 -0.7 92
2019-09-27 02:00:00 17 8 Sur 23 Sudoeste 0 1014.4 -0.3 92
2019-09-27 01:00:00 17.4 7 Sur 12 Sur 0 1014.9 0.3 92
2019-09-27 00:00:00 17.8 6 Sur 9 Sur 0 1015 0.6 92
2019-09-26 23:00:00 18.6 6 Sur 8 Sur 0 1014.7 0.8 89
2019-09-26 22:00:00 18.4 6 Sur 8 Sur 0 1014.6 1.3 90
2019-09-26 21:00:00 18.7 6 Sur 16 Este 0 1014.4 1.1 88
2019-09-26 20:00:00 19.5 10 Nordeste 17 Este 0 1013.9 0 86
2019-09-26 19:00:00 20.1 12 Nordeste 18 Este 0 1013.3 -0.7 82
2019-09-26 18:00:00 20.8 12 Nordeste 17 Este 0 1013.3 -0.2 78
2019-09-26 17:00:00 22 5 Nordeste 12 Nordeste 0 1013.9 -0.3 75
2019-09-26 16:00:00 21.5 6 Nordeste 16 Nordeste 0 1014 -0.7 76
2019-09-26 15:00:00 21.4 12 Nordeste 17 Este 0 1013.5 -1.2 82
2019-09-26 14:00:00 21.4 9 Nordeste 14 Este 0 1014.2 -0.3 82
2019-09-26 13:00:00 21 5 Nordeste 9 Este 0 1014.7 0.5 86
2019-09-26 12:00:00 20.5 2 Este 6 Sudeste 0 1014.7 0.7 86
2019-09-26 11:00:00 19.4 4 Sur 10 Sur 0 1014.5 0.6 90
2019-09-26 10:00:00 17.9 8 Sur 10 Sudoeste 0 1014.2 0.4 91
2019-09-26 09:00:00 17.4 8 Sudoeste 11 Sudoeste 0 1014 0.2 91
2019-09-26 08:00:00 16.9 8 Sudoeste 11 Sudoeste 0 1013.9 0.4 91
2019-09-26 07:00:00 17.4 8 Sudoeste 10 Sudoeste 0 1013.8 0.1 91
2019-09-26 06:00:00 17.3 8 Sudoeste 10 Sur 0 1013.8 -0.2 91
2019-09-26 05:00:00 17.4 7 Sudoeste 10 Sudoeste 0 1013.5 -0.6 91
2019-09-26 04:00:00 17.8 7 Sudoeste 10 Sudoeste 0 1013.7 -0.9 91
2019-09-26 03:00:00 17.7 6 Sudoeste 9 Sudoeste 0 1014 -0.4 91
2019-09-26 02:00:00 18 5 Sur 8 Sur 0 1014.1 -0.1 91
2019-09-26 01:00:00 18.1 6 Sur 9 Sur 0 1014.6 0.5 90
2019-09-26 00:00:00 18.3 5 Sur 8 Sur 0 1014.4 0.6 90
2019-09-25 23:00:00 18.8 3 Sudoeste 8 Sudoeste 0 1014.2 0.9 87
2019-09-25 22:00:00 19.1 5 Sur 8 Sudoeste 0 1014.1 0.8 88
2019-09-25 21:00:00 19.4 5 Sur 7 Sur 0 1013.8 0.6 87
2019-09-25 20:00:00 20 2 Sudoeste 11 Oeste 0 1013.3 0.3 82
2019-09-25 19:00:00 20.2 6 Oeste 11 Oeste 0 1013.3 -0.1 84
2019-09-25 18:00:00 19.8 7 Noroeste 13 Noroeste 0 1013.2 -0.5 88
2019-09-25 17:00:00 20.5 3 Oeste 16 Oeste 0 1013 -1.1 79
2019-09-25 16:00:00 20.7 12 Noroeste 18 Noroeste 0 1013.4 -1.1 80
2019-09-25 15:00:00 21.6 10 Noroeste 17 Noroeste 0 1013.7 -0.8 75
2019-09-25 14:00:00 21.8 10 Noroeste 23 Oeste 0 1014.1 -0.1 69
2019-09-25 13:00:00 21.6 8 Noroeste 17 Noroeste 0 1014.5 0.8 67
2019-09-25 12:00:00 20.7 5 Noroeste 13 Norte 0 1014.5 0.9 67
2019-09-25 11:00:00 19.5 3 Sur 12 Sudoeste 0 1014.2 1.2 79
2019-09-25 10:00:00 16.8 8 Sur 13 Sur 0 1013.7 0.9 89
2019-09-25 09:00:00 14.6 8 Sudoeste 14 Sur 0 1013.6 0.7 92
2019-09-25 08:00:00 14 11 Sur 16 Sur 0 1013 0.3 92
2019-09-25 07:00:00 13.7 8 Sudoeste 14 Sudoeste 0 1012.8 0 92
2019-09-25 06:00:00 14.1 7 Sudoeste 14 Sudoeste 0 1012.9 -0.1 92
2019-09-25 05:00:00 14.4 10 Sudoeste 13 Sudoeste 0 1012.7 -0.3 92
2019-09-25 04:00:00 15 8 Sudoeste 14 Sudoeste 0 1012.8 -0.6 92
2019-09-25 03:00:00 15.7 9 Sudoeste 15 Sudoeste 0 1013 -0.4 91
2019-09-25 02:00:00 16.9 5 Sudoeste 11 Sudoeste 0 1013 -0.6 89
2019-09-25 01:00:00 17.7 4 Sudoeste 22 Oeste 0 1013.4 -0.1 85
2019-09-25 00:00:00 17.9 4 Sudoeste 13 Oeste 0 1013.4 0.4 87
2019-09-24 23:00:00 18 4 Sudoeste 15 Oeste 0 1013.6 0.9 86
2019-09-24 22:00:00 17.8 4 Sudoeste 14 Sudoeste 0.1 1013.5 1.1 88
2019-09-24 21:00:00 18.1 2 Sudoeste 12 Sudoeste 0 1013 0.8 89
2019-09-24 20:00:00 18.6 2 Sudoeste 12 Oeste 0 1012.7 0.8 88
2019-09-24 19:00:00 18.5 4 Sudoeste 13 Sudoeste 0 1012.4 0.9 90
2019-09-24 18:00:00 18.8 4 Sudoeste 19 Oeste 0 1012.2 0.5 88
2019-09-24 17:00:00 20.1 5 Oeste 11 Oeste 0 1011.9 -0.2 82
2019-09-24 16:00:00 20.6 3 Sur 13 Oeste 0 1011.5 -0.5 83
2019-09-24 15:00:00 20.2 4 Oeste 13 Oeste 0 1011.7 0.2 87
2019-09-24 14:00:00 19.6 7 Oeste 17 Oeste 0 1012.1 0.9 88
2019-09-24 13:00:00 19.4 5 Oeste 18 Oeste 0 1012 2.6 88
2019-09-24 12:00:00 18.7 10 Oeste 36 Oeste 0 1011.5 2.6 89
2019-09-24 11:00:00 18.8 23 Oeste 45 Noroeste 0.1 1011.2 2.5 91
2019-09-24 10:00:00 19.9 8 Sur 13 Sur 0 1009.4 1.1 92
2019-09-24 09:00:00 19.1 9 Sur 13 Sur 0 1008.9 0.9 91
2019-09-24 08:00:00 19.1 8 Sur 12 Sur 0 1008.7 2.6 91
2019-09-24 07:00:00 19.6 6 Sudoeste 25 Oeste 0.3 1008.3 2.7 88
2019-09-24 06:00:00 19.9 15 Oeste 27 Oeste 0.4 1008 1.9 87
2019-09-24 05:00:00 21 5 Oeste 12 Norte 0.1 1006.1 -1.1 78
2019-09-24 04:00:00 20.4 3 Sur 10 Noroeste 0 1005.6 -2 81
2019-09-24 03:00:00 20.2 0 Calma 8 Noroeste 0 1006.1 -2.5 83
2019-09-24 02:00:00 19.3 9 Oeste 16 Oeste 0 1007.2 -2.9 86
2019-09-24 01:00:00 20 6 Sudoeste 19 Sur 0 1007.6 -3.6 89
2019-09-24 00:00:00 18.8 10 Sur 16 Sur 0 1008.6 -3 91
2019-09-23 23:00:00 18.6 2 Este 18 Este 0 1010.1 -1.1 90
2019-09-23 22:00:00 19 6 Sudeste 11 Sudeste 0.1 1011.2 -0.5 86
2019-09-23 21:00:00 19.2 6 Sudeste 13 Este 0 1011.6 -0.4 87
2019-09-23 20:00:00 19.7 5 Este 12 Este 0 1011.2 -0.5 87
2019-09-23 19:00:00 20.2 2 Este 7 Este 0 1011.7 0.2 85
2019-09-23 18:00:00 20.2 0 Calma 6 Oeste 0 1012 0.4 82
2019-09-23 17:00:00 20 4 Noroeste 10 Noroeste 0 1011.7 -0.3 82
2019-09-23 16:00:00 19.8 3 Norte 10 Noroeste 0 1011.5 -0.6 81
2019-09-23 15:00:00 20.2 3 Norte 12 Oeste 0 1011.6 -1.2 81
2019-09-23 14:00:00 19.8 3 Norte 8 Norte 0 1012 -1.1 79
2019-09-23 13:00:00 19.5 3 Norte 6 Norte 0 1012.1 -0.4 81
2019-09-23 12:00:00 19 0 Calma 12 Noroeste 0 1012.8 -0.1 82
2019-09-23 11:00:00 17.8 3 Oeste 11 Sudoeste 0 1013.1 0 91
2019-09-23 10:00:00 15.7 8 Sur 13 Sur 0 1012.5 -0.7 92
2019-09-23 09:00:00 15 10 Sur 13 Sur 0 1012.9 0.1 92
2019-09-23 08:00:00 14.9 10 Sur 14 Sur 0 1013.1 0.3 92
2019-09-23 07:00:00 14.8 9 Sudoeste 14 Sur 0 1013.2 0.5 92
2019-09-23 06:00:00 14.5 10 Sudoeste 13 Sudoeste 0 1012.8 0 92
2019-09-23 05:00:00 14.5 9 Sudoeste 15 Sudoeste 0 1012.8 0 92
2019-09-23 04:00:00 14.6 13 Sudoeste 17 Sudoeste 0 1012.7 -0.2 92
2019-09-23 03:00:00 15.1 12 Sur 16 Sudoeste 0 1012.8 -0.1 92
2019-09-23 02:00:00 15.6 10 Sur 15 Sudoeste 0 1012.8 -0.1 92
2019-09-23 01:00:00 16.4 10 Sudoeste 15 Sudoeste 0 1012.9 0.3 92
2019-09-23 00:00:00 16.9 8 Sur 13 Sur 0 1012.9 0.9 91
2019-09-22 23:00:00 17.5 6 Sur 15 Sur 0.1 1012.9 1.7 91
2019-09-22 22:00:00 17.6 8 Sudoeste 13 Sudoeste 0 1012.6 1.7 89
2019-09-22 21:00:00 18.2 8 Sudoeste 13 Sur 0.3 1012 1.8 87
2019-09-22 20:00:00 20.2 6 Noroeste 10 Noroeste 0 1011.2 1.3 70
2019-09-22 19:00:00 21.3 6 Noroeste 9 Noroeste 0 1010.9 1.3 66
2019-09-22 18:00:00 20.9 5 Noroeste 16 Noroeste 0 1010.2 0.7 68
2019-09-22 17:00:00 21.5 5 Noroeste 15 Noroeste 0 1009.9 1 67
2019-09-22 16:00:00 21.5 9 Norte 16 Norte 0 1009.6 0.8 68
2019-09-22 15:00:00 21.3 9 Nordeste 15 Nordeste 0 1009.5 1.1 75
2019-09-22 14:00:00 21.7 6 Norte 10 Norte 0 1008.9 1.1 81
2019-09-22 13:00:00 20.3 5 Norte 11 Norte 0 1008.8 1.8 78
2019-09-22 12:00:00 20.7 2 Norte 5 Noroeste 0 1008.4 2.3 80
2019-09-22 11:00:00 19 5 Sudoeste 12 Sudoeste 0 1007.8 2.3 89
2019-09-22 10:00:00 16.7 9 Sudoeste 13 Sudoeste 0.1 1007 2.2 91
2019-09-22 09:00:00 16.7 9 Sur 14 Sudoeste 0 1006.1 2 90
2019-09-22 08:00:00 17 10 Sudoeste 15 Sur 0 1005.5 1.8 89
2019-09-22 07:00:00 17 6 Sudoeste 18 Sur 0 1004.8 0.8 90
2019-09-22 06:00:00 17.1 10 Sur 17 Sur 0 1004.1 0.1 92
2019-09-22 05:00:00 16.7 8 Sudeste 15 Sur 0 1003.7 0.2 92
2019-09-22 04:00:00 16.7 7 Sur 18 Sur 0.1 1004 0.7 92
2019-09-22 03:00:00 16.8 9 Oeste 18 Noroeste 0.1 1004 1.8 90
2019-09-22 02:00:00 17.8 3 Sur 10 Sudoeste 0 1003.5 2.8 89
2019-09-22 01:00:00 17.8 4 Sudoeste 47 Oeste 0 1003.3 5.2 88
2019-09-22 00:00:00 17.9 30 Oeste 66 Oeste 0 1002.2 4 91